AirNav   Air Wisconsin Up To $57,000 Bonus
 
 1248 users online  

LS96 Ochsner Medical Institutions Heliport
Jefferson, Louisiana, USA

GOING TO JEFFERSON?


FAA INFORMATION EFFECTIVE 08 SEPTEMBER 2022

Location

FAA Identifier: LS96
Lat/Long: 29-58-03.3000N 090-08-35.0000W
29-58.055000N 090-08.583333W
29.9675833,-90.1430556
(estimated)
Elevation: 7 ft. / 2 m (estimated)
Variation: 02E (1990)
Time zone: UTC -5 (UTC -6 during Standard Time)
Zip code: 70121

Heliport Operations

Heliport use: Private use, MEDICAL.
Activation date: 01/1992
Control tower: no
ARTCC: HOUSTON CENTER
FSS: DE RIDDER FLIGHT SERVICE STATION
Attendance: UNATNDD
Wind indicator: lighted
Segmented circle: no
Lights: FOR PERIMETER LGTS CALL 504-838-3199.

Heliport Communications

WX ASOS at MSY (6 nm W): PHONE (504)471-4486
WX ASOS at NEW (7 nm NE): PHONE 504-245-4366

Nearby radio navigation aids

VOR radial/distance  VOR name  Freq  Var
HRVr312/10.1HARVEY VORTAC114.1002E
RQRr105/24.2RESERVE VOR/DME110.8002E

Heliport Services

Runway Information

Helipad H1

Dimensions: 50 x 50 ft. / 15 x 15 m
Surface: concrete
Runway edge lights: PERI
Latitude: 29-58.055000N
Longitude: 090-08.583333W
Elevation: 7.0 ft.
Traffic pattern: leftleft

Heliport Ownership and Management from official FAA records

Ownership: Privately-owned
Owner: OCHSNER MEDICAL INSTITUTIONS
1516 JEFFERSON HWY
NEW ORLEANS, LA 70121
Phone 504-842-3198
Manager: ROBERT A. CARPENTER
1516 JEFFERSON HWY
NEW ORLEANS, LA 70121
Phone 504-842-3416

Additional Remarks

A52-H1 60 FT PLINE 250 FT NORTH; 30 FT BLDG 456 FT SOUTH AND 70 FT BLDG 1000 FT SOUTH OF PAD.
AVOID RESIDENTIAL AREA 600 FT NE OF PAD.
FOR CD CTC HOUSTON ARTCC AT 281-230-5622.

Instrument Procedures

There are no published instrument procedures at LS96.

Some nearby airports with instrument procedures:

KMSY - Louis Armstrong New Orleans International Airport (6 nm W)
KNEW - Lakefront Airport (7 nm NE)
KNBG - New Orleans Naval Air Station Joint Reserve Base - Alvin Callender Field (10 nm SE)
KAPS - Port of South Louisiana Executive Regional Airport (24 nm W)
KASD - Slidell Airport (28 nm NE)
 
Loc | Ops | Rwys | IFR | FBO | Links
Com | Nav | Svcs | Stats | Notes
Area around LS96 (Ochsner Medical Institutions Heliport)
 
Road maps at: MapQuest Bing Google
 
Aerial photo
No photo
 
Sectional chart

 
Airport distance calculator
Flying to Ochsner Medical Institutions Heliport? Find the distance to fly.

From to LS96

Sunrise and sunset
Times for 28-Sep-2022
 Local
(UTC-5)
 Zulu
(UTC)
Morning civil twilight06:2911:29
Sunrise06:5311:53
Sunset18:4923:49
Evening civil twilight19:1300:13

Current date and time
Zulu (UTC)  29-Sep-2022 02:13:19
Local (UTC-5)  28-Sep-2022 21:13:19
 
METAR
K7N0 
3nm E 
290156Z AUTO 02010G18KT 10SM CLR 24/08 A3014 RMK AO2 SLP204 T02440078 PNO $
KMSY 
6nm W 
290153Z 02010G21KT 10SM CLR 24/08 A3012 RMK AO2 SLP202 T02440083
KNEW 
8nm NE 
290153Z AUTO 02020KT 10SM CLR 24/11 A3013 RMK AO2 PK WND 02030/0135 SLP196 T02390106
KNBG 
11nm SE 
290155Z 02009KT 10SM CLR 23/09 A3012 RMK AO2 SLP197 T02280094 $
TAF
KMSY 
6nm W 
281721Z 2818/2924 04015G24KT P6SM SKC
KNEW 
8nm NE 
281721Z 2818/2918 03018G25KT P6SM SKC
KNBG 
11nm SE 
2823/2923 02018G25KT 9999 SKC QNH3004INS BECMG 2900/2902 02012G18KT 9999 FEW250 QNH3013INS BECMG 2911/2913 01015G25KT 9999 SKC QNH3001INS AUTOMATED SENSOR METWATCH 2904 TIL 2910 16/2911Z T26/2919Z FN00247
NOTAMs
Click for the latest NOTAMs
NOTAMs are issued by the DoD/FAA and will open in a separate window not controlled by AirNav.

 

 
 

Would you like to see your business listed on this page?

 If your business provides an interesting product or service to pilots, flight crews, aircraft, or users of the Ochsner Medical Institutions Heliport, you should consider listing it here.  To start the listing process, click on the button below
 
Add a business
 

Other Pages about Ochsner Medical Institutions Heliport

Update a link
 
Copyright © AirNav, LLC. All rights reserved. Privacy Policy  Contact